sensor_id;sensor_type;location;lat;lon;timestamp;P1;durP1;ratioP1;P2;durP2;ratioP2
38240;SDS011;24037;49.536;8.500;2023-07-30T00:02:01;14.55;;;13.93;;
38240;SDS011;24037;49.536;8.500;2023-07-30T00:04:27;15.80;;;15.20;;
38240;SDS011;24037;49.536;8.500;2023-07-30T00:06:56;13.38;;;12.88;;
38240;SDS011;24037;49.536;8.500;2023-07-30T00:09:22;14.55;;;13.95;;
38240;SDS011;24037;49.536;8.500;2023-07-30T00:11:48;16.08;;;15.38;;
38240;SDS011;24037;49.536;8.500;2023-07-30T00:14:14;17.17;;;16.48;;
38240;SDS011;24037;49.536;8.500;2023-07-30T00:16:40;16.95;;;16.17;;
38240;SDS011;24037;49.536;8.500;2023-07-30T00:19:06;16.50;;;15.88;;
38240;SDS011;24037;49.536;8.500;2023-07-30T00:21:33;16.73;;;16.02;;
38240;SDS011;24037;49.536;8.500;2023-07-30T00:23:59;16.92;;;16.23;;
38240;SDS011;24037;49.536;8.500;2023-07-30T00:26:25;15.52;;;14.82;;
38240;SDS011;24037;49.536;8.500;2023-07-30T00:28:51;15.90;;;15.25;;
38240;SDS011;24037;49.536;8.500;2023-07-30T00:31:18;16.00;;;15.40;;
38240;SDS011;24037;49.536;8.500;2023-07-30T00:33:44;16.60;;;15.80;;
38240;SDS011;24037;49.536;8.500;2023-07-30T00:36:10;18.27;;;17.48;;
38240;SDS011;24037;49.536;8.500;2023-07-30T00:38:37;17.88;;;16.92;;
38240;SDS011;24037;49.536;8.500;2023-07-30T00:41:04;17.52;;;16.73;;
38240;SDS011;24037;49.536;8.500;2023-07-30T00:43:30;17.38;;;16.67;;
38240;SDS011;24037;49.536;8.500;2023-07-30T00:45:56;16.30;;;15.60;;
38240;SDS011;24037;49.536;8.500;2023-07-30T00:48:22;18.65;;;17.75;;
38240;SDS011;24037;49.536;8.500;2023-07-30T00:50:48;17.17;;;16.50;;
38240;SDS011;24037;49.536;8.500;2023-07-30T00:53:15;16.38;;;15.77;;
38240;SDS011;24037;49.536;8.500;2023-07-30T00:55:42;15.32;;;14.73;;
38240;SDS011;24037;49.536;8.500;2023-07-30T00:58:09;15.20;;;14.60;;
38240;SDS011;24037;49.536;8.500;2023-07-30T01:00:36;15.60;;;14.90;;
38240;SDS011;24037;49.536;8.500;2023-07-30T01:03:03;14.65;;;14.05;;
38240;SDS011;24037;49.536;8.500;2023-07-30T01:05:29;14.68;;;14.15;;
38240;SDS011;24037;49.536;8.500;2023-07-30T01:07:56;15.10;;;14.52;;
38240;SDS011;24037;49.536;8.500;2023-07-30T01:10:22;15.68;;;15.07;;
38240;SDS011;24037;49.536;8.500;2023-07-30T01:12:49;15.65;;;15.05;;
38240;SDS011;24037;49.536;8.500;2023-07-30T01:15:16;16.00;;;15.40;;
38240;SDS011;24037;49.536;8.500;2023-07-30T01:17:43;15.73;;;15.13;;
38240;SDS011;24037;49.536;8.500;2023-07-30T01:20:10;14.80;;;14.20;;
38240;SDS011;24037;49.536;8.500;2023-07-30T01:22:37;16.52;;;15.93;;
38240;SDS011;24037;49.536;8.500;2023-07-30T01:25:03;15.73;;;15.13;;
38240;SDS011;24037;49.536;8.500;2023-07-30T01:27:30;16.58;;;15.88;;
38240;SDS011;24037;49.536;8.500;2023-07-30T01:30:06;16.55;;;15.82;;
38240;SDS011;24037;49.536;8.500;2023-07-30T01:32:40;15.15;;;14.55;;
38240;SDS011;24037;49.536;8.500;2023-07-30T01:35:08;15.35;;;14.75;;
38240;SDS011;24037;49.536;8.500;2023-07-30T01:37:35;17.30;;;16.60;;
38240;SDS011;24037;49.536;8.500;2023-07-30T01:40:09;16.38;;;15.68;;
38240;SDS011;24037;49.536;8.500;2023-07-30T01:42:35;17.02;;;16.02;;
38240;SDS011;24037;49.536;8.500;2023-07-30T01:45:02;16.50;;;15.80;;
38240;SDS011;24037;49.536;8.500;2023-07-30T01:47:32;16.85;;;16.15;;
38240;SDS011;24037;49.536;8.500;2023-07-30T01:50:04;16.50;;;15.70;;
38240;SDS011;24037;49.536;8.500;2023-07-30T01:52:33;17.92;;;17.13;;
38240;SDS011;24037;49.536;8.500;2023-07-30T01:54:59;17.70;;;16.95;;
38240;SDS011;24037;49.536;8.500;2023-07-30T01:57:26;16.75;;;16.05;;
38240;SDS011;24037;49.536;8.500;2023-07-30T01:59:52;16.25;;;15.65;;
38240;SDS011;24037;49.536;8.500;2023-07-30T02:02:27;16.48;;;15.77;;
38240;SDS011;24037;49.536;8.500;2023-07-30T02:04:53;16.58;;;15.85;;
38240;SDS011;24037;49.536;8.500;2023-07-30T02:07:22;17.42;;;16.63;;
38240;SDS011;24037;49.536;8.500;2023-07-30T02:09:48;17.10;;;16.40;;
38240;SDS011;24037;49.536;8.500;2023-07-30T02:12:17;16.17;;;15.48;;
38240;SDS011;24037;49.536;8.500;2023-07-30T02:14:49;17.33;;;16.52;;
38240;SDS011;24037;49.536;8.500;2023-07-30T02:17:15;16.63;;;15.93;;
38240;SDS011;24037;49.536;8.500;2023-07-30T02:19:42;16.90;;;16.20;;
38240;SDS011;24037;49.536;8.500;2023-07-30T02:22:08;18.77;;;17.98;;
38240;SDS011;24037;49.536;8.500;2023-07-30T02:24:34;18.13;;;17.42;;
38240;SDS011;24037;49.536;8.500;2023-07-30T02:27:00;16.05;;;15.35;;
38240;SDS011;24037;49.536;8.500;2023-07-30T02:29:27;17.38;;;16.67;;
38240;SDS011;24037;49.536;8.500;2023-07-30T02:31:53;16.58;;;15.88;;
38240;SDS011;24037;49.536;8.500;2023-07-30T02:34:20;18.70;;;17.90;;
38240;SDS011;24037;49.536;8.500;2023-07-30T02:36:46;16.40;;;15.70;;
38240;SDS011;24037;49.536;8.500;2023-07-30T02:39:12;16.25;;;15.55;;
38240;SDS011;24037;49.536;8.500;2023-07-30T02:41:38;17.50;;;16.70;;
38240;SDS011;24037;49.536;8.500;2023-07-30T02:44:04;17.58;;;16.88;;
38240;SDS011;24037;49.536;8.500;2023-07-30T02:46:30;16.83;;;16.13;;
38240;SDS011;24037;49.536;8.500;2023-07-30T02:48:56;19.02;;;18.23;;
38240;SDS011;24037;49.536;8.500;2023-07-30T02:51:23;18.20;;;17.30;;
38240;SDS011;24037;49.536;8.500;2023-07-30T02:53:51;17.45;;;16.75;;
38240;SDS011;24037;49.536;8.500;2023-07-30T02:56:19;21.43;;;20.53;;
38240;SDS011;24037;49.536;8.500;2023-07-30T02:58:45;17.83;;;16.92;;
38240;SDS011;24037;49.536;8.500;2023-07-30T03:01:11;17.60;;;16.80;;
38240;SDS011;24037;49.536;8.500;2023-07-30T03:03:37;18.38;;;17.58;;
38240;SDS011;24037;49.536;8.500;2023-07-30T03:06:03;18.67;;;17.88;;
38240;SDS011;24037;49.536;8.500;2023-07-30T03:08:29;17.70;;;17.00;;
38240;SDS011;24037;49.536;8.500;2023-07-30T03:10:58;18.40;;;17.70;;
38240;SDS011;24037;49.536;8.500;2023-07-30T03:13:25;24.98;;;23.98;;
38240;SDS011;24037;49.536;8.500;2023-07-30T03:15:51;19.63;;;18.83;;
38240;SDS011;24037;49.536;8.500;2023-07-30T03:18:18;17.92;;;17.17;;
38240;SDS011;24037;49.536;8.500;2023-07-30T03:20:46;19.65;;;18.85;;
38240;SDS011;24037;49.536;8.500;2023-07-30T03:23:18;19.83;;;19.02;;
38240;SDS011;24037;49.536;8.500;2023-07-30T03:25:44;19.67;;;18.88;;
38240;SDS011;24037;49.536;8.500;2023-07-30T03:28:10;18.60;;;17.80;;
38240;SDS011;24037;49.536;8.500;2023-07-30T03:30:36;21.67;;;20.88;;
38240;SDS011;24037;49.536;8.500;2023-07-30T03:33:02;18.88;;;18.05;;
38240;SDS011;24037;49.536;8.500;2023-07-30T03:35:28;21.48;;;20.58;;
38240;SDS011;24037;49.536;8.500;2023-07-30T03:37:54;21.48;;;20.58;;
38240;SDS011;24037;49.536;8.500;2023-07-30T03:40:22;19.02;;;18.17;;
38240;SDS011;24037;49.536;8.500;2023-07-30T03:42:49;21.60;;;20.70;;
38240;SDS011;24037;49.536;8.500;2023-07-30T03:45:15;19.30;;;18.50;;
38240;SDS011;24037;49.536;8.500;2023-07-30T03:47:41;19.40;;;18.60;;
38240;SDS011;24037;49.536;8.500;2023-07-30T03:50:07;20.13;;;19.33;;
38240;SDS011;24037;49.536;8.500;2023-07-30T03:52:34;21.80;;;20.90;;
38240;SDS011;24037;49.536;8.500;2023-07-30T03:55:03;24.65;;;23.65;;
38240;SDS011;24037;49.536;8.500;2023-07-30T03:57:29;20.77;;;19.88;;
38240;SDS011;24037;49.536;8.500;2023-07-30T03:59:56;21.98;;;21.08;;
38240;SDS011;24037;49.536;8.500;2023-07-30T04:02:22;21.13;;;20.25;;
38240;SDS011;24037;49.536;8.500;2023-07-30T04:04:48;20.95;;;20.05;;
38240;SDS011;24037;49.536;8.500;2023-07-30T04:07:15;19.25;;;18.50;;
38240;SDS011;24037;49.536;8.500;2023-07-30T04:09:42;21.50;;;20.60;;
38240;SDS011;24037;49.536;8.500;2023-07-30T04:12:08;21.77;;;20.88;;
38240;SDS011;24037;49.536;8.500;2023-07-30T04:14:34;23.60;;;22.58;;
38240;SDS011;24037;49.536;8.500;2023-07-30T04:17:03;22.88;;;21.98;;
38240;SDS011;24037;49.536;8.500;2023-07-30T04:19:29;22.13;;;21.23;;
38240;SDS011;24037;49.536;8.500;2023-07-30T04:21:55;22.13;;;21.23;;
38240;SDS011;24037;49.536;8.500;2023-07-30T04:24:22;20.42;;;19.63;;
38240;SDS011;24037;49.536;8.500;2023-07-30T04:26:48;23.15;;;22.08;;
38240;SDS011;24037;49.536;8.500;2023-07-30T04:29:14;22.63;;;21.73;;
38240;SDS011;24037;49.536;8.500;2023-07-30T04:31:42;22.00;;;21.13;;
38240;SDS011;24037;49.536;8.500;2023-07-30T04:34:08;21.48;;;20.58;;
38240;SDS011;24037;49.536;8.500;2023-07-30T04:36:36;24.90;;;23.75;;
38240;SDS011;24037;49.536;8.500;2023-07-30T04:39:02;24.33;;;23.42;;
38240;SDS011;24037;49.536;8.500;2023-07-30T04:41:32;25.00;;;24.00;;
38240;SDS011;24037;49.536;8.500;2023-07-30T04:43:59;25.52;;;24.52;;
38240;SDS011;24037;49.536;8.500;2023-07-30T04:46:27;26.70;;;25.58;;
38240;SDS011;24037;49.536;8.500;2023-07-30T04:48:54;23.58;;;22.63;;
38240;SDS011;24037;49.536;8.500;2023-07-30T04:51:20;21.77;;;20.88;;
38240;SDS011;24037;49.536;8.500;2023-07-30T04:53:46;25.08;;;23.98;;
38240;SDS011;24037;49.536;8.500;2023-07-30T04:56:12;26.25;;;25.15;;
38240;SDS011;24037;49.536;8.500;2023-07-30T04:58:39;21.70;;;20.80;;
38240;SDS011;24037;49.536;8.500;2023-07-30T05:01:05;23.10;;;22.20;;
38240;SDS011;24037;49.536;8.500;2023-07-30T05:03:31;22.20;;;21.20;;
38240;SDS011;24037;49.536;8.500;2023-07-30T05:05:57;24.42;;;23.30;;
38240;SDS011;24037;49.536;8.500;2023-07-30T05:08:23;25.00;;;23.90;;
38240;SDS011;24037;49.536;8.500;2023-07-30T05:10:49;24.95;;;23.85;;
38240;SDS011;24037;49.536;8.500;2023-07-30T05:13:15;25.25;;;24.13;;
38240;SDS011;24037;49.536;8.500;2023-07-30T05:15:41;25.60;;;24.20;;
38240;SDS011;24037;49.536;8.500;2023-07-30T05:18:08;24.55;;;23.35;;
38240;SDS011;24037;49.536;8.500;2023-07-30T05:20:34;25.50;;;24.30;;
38240;SDS011;24037;49.536;8.500;2023-07-30T05:23:00;26.10;;;24.90;;
38240;SDS011;24037;49.536;8.500;2023-07-30T05:25:27;26.45;;;25.05;;
38240;SDS011;24037;49.536;8.500;2023-07-30T05:27:54;23.33;;;22.27;;
38240;SDS011;24037;49.536;8.500;2023-07-30T05:30:20;22.00;;;21.10;;
38240;SDS011;24037;49.536;8.500;2023-07-30T05:32:46;23.33;;;22.38;;
38240;SDS011;24037;49.536;8.500;2023-07-30T05:35:12;24.75;;;23.77;;
38240;SDS011;24037;49.536;8.500;2023-07-30T05:37:39;25.83;;;24.83;;
38240;SDS011;24037;49.536;8.500;2023-07-30T05:40:05;21.33;;;20.42;;
38240;SDS011;24037;49.536;8.500;2023-07-30T05:42:32;22.20;;;21.30;;
38240;SDS011;24037;49.536;8.500;2023-07-30T05:44:58;20.45;;;19.65;;
38240;SDS011;24037;49.536;8.500;2023-07-30T05:47:24;19.60;;;18.70;;
38240;SDS011;24037;49.536;8.500;2023-07-30T05:49:51;19.70;;;18.90;;
38240;SDS011;24037;49.536;8.500;2023-07-30T05:52:17;18.75;;;17.95;;
38240;SDS011;24037;49.536;8.500;2023-07-30T05:54:43;18.27;;;17.58;;
38240;SDS011;24037;49.536;8.500;2023-07-30T05:57:09;18.20;;;17.40;;
38240;SDS011;24037;49.536;8.500;2023-07-30T05:59:35;19.75;;;18.98;;
38240;SDS011;24037;49.536;8.500;2023-07-30T06:02:02;25.98;;;25.08;;
38240;SDS011;24037;49.536;8.500;2023-07-30T06:04:29;22.83;;;21.67;;
38240;SDS011;24037;49.536;8.500;2023-07-30T06:06:55;20.00;;;19.30;;
38240;SDS011;24037;49.536;8.500;2023-07-30T06:09:23;18.25;;;17.55;;
38240;SDS011;24037;49.536;8.500;2023-07-30T06:11:49;19.42;;;18.73;;
38240;SDS011;24037;49.536;8.500;2023-07-30T06:14:16;21.00;;;20.23;;
38240;SDS011;24037;49.536;8.500;2023-07-30T06:16:42;18.45;;;17.75;;
38240;SDS011;24037;49.536;8.500;2023-07-30T06:19:09;20.20;;;19.30;;
38240;SDS011;24037;49.536;8.500;2023-07-30T06:21:35;19.75;;;18.95;;
38240;SDS011;24037;49.536;8.500;2023-07-30T06:24:01;21.40;;;20.60;;
38240;SDS011;24037;49.536;8.500;2023-07-30T06:26:27;21.10;;;20.38;;
38240;SDS011;24037;49.536;8.500;2023-07-30T06:28:53;20.80;;;20.10;;
38240;SDS011;24037;49.536;8.500;2023-07-30T06:31:19;18.88;;;18.17;;
38240;SDS011;24037;49.536;8.500;2023-07-30T06:33:45;19.17;;;18.48;;
38240;SDS011;24037;49.536;8.500;2023-07-30T06:36:12;21.75;;;20.95;;
38240;SDS011;24037;49.536;8.500;2023-07-30T06:38:38;23.55;;;22.67;;
38240;SDS011;24037;49.536;8.500;2023-07-30T06:41:04;26.83;;;25.75;;
38240;SDS011;24037;49.536;8.500;2023-07-30T06:43:30;15.68;;;15.07;;
38240;SDS011;24037;49.536;8.500;2023-07-30T06:45:56;18.30;;;17.60;;
38240;SDS011;24037;49.536;8.500;2023-07-30T06:48:23;18.83;;;17.88;;
38240;SDS011;24037;49.536;8.500;2023-07-30T06:50:49;16.17;;;15.48;;
38240;SDS011;24037;49.536;8.500;2023-07-30T06:53:15;18.40;;;17.67;;
38240;SDS011;24037;49.536;8.500;2023-07-30T06:55:41;16.25;;;15.55;;
38240;SDS011;24037;49.536;8.500;2023-07-30T06:58:07;18.70;;;18.00;;
38240;SDS011;24037;49.536;8.500;2023-07-30T07:00:33;14.68;;;14.07;;
38240;SDS011;24037;49.536;8.500;2023-07-30T07:03:00;19.00;;;18.30;;
38240;SDS011;24037;49.536;8.500;2023-07-30T07:05:26;18.63;;;17.80;;
38240;SDS011;24037;49.536;8.500;2023-07-30T07:07:52;18.27;;;17.38;;
38240;SDS011;24037;49.536;8.500;2023-07-30T07:10:18;19.60;;;18.90;;
38240;SDS011;24037;49.536;8.500;2023-07-30T07:12:44;20.98;;;20.17;;
38240;SDS011;24037;49.536;8.500;2023-07-30T07:15:10;20.65;;;19.85;;
38240;SDS011;24037;49.536;8.500;2023-07-30T07:17:36;19.55;;;18.67;;
38240;SDS011;24037;49.536;8.500;2023-07-30T07:20:05;18.58;;;17.88;;
38240;SDS011;24037;49.536;8.500;2023-07-30T07:22:33;17.17;;;16.58;;
38240;SDS011;24037;49.536;8.500;2023-07-30T07:25:00;18.40;;;17.70;;
38240;SDS011;24037;49.536;8.500;2023-07-30T07:27:26;18.60;;;17.90;;
38240;SDS011;24037;49.536;8.500;2023-07-30T07:29:52;19.48;;;18.75;;
38240;SDS011;24037;49.536;8.500;2023-07-30T07:32:19;20.67;;;19.90;;
38240;SDS011;24037;49.536;8.500;2023-07-30T07:34:45;18.80;;;18.08;;
38240;SDS011;24037;49.536;8.500;2023-07-30T07:37:13;20.45;;;19.58;;
38240;SDS011;24037;49.536;8.500;2023-07-30T07:39:41;19.42;;;18.70;;
38240;SDS011;24037;49.536;8.500;2023-07-30T07:42:08;15.82;;;15.23;;
38240;SDS011;24037;49.536;8.500;2023-07-30T07:44:34;16.40;;;15.80;;
38240;SDS011;24037;49.536;8.500;2023-07-30T07:47:01;18.00;;;17.20;;
38240;SDS011;24037;49.536;8.500;2023-07-30T07:49:27;19.80;;;19.10;;
38240;SDS011;24037;49.536;8.500;2023-07-30T07:51:53;19.10;;;18.40;;
38240;SDS011;24037;49.536;8.500;2023-07-30T07:54:19;20.48;;;19.67;;
38240;SDS011;24037;49.536;8.500;2023-07-30T07:56:46;18.00;;;17.20;;
38240;SDS011;24037;49.536;8.500;2023-07-30T07:59:12;18.73;;;17.92;;
38240;SDS011;24037;49.536;8.500;2023-07-30T08:01:38;21.60;;;20.80;;
38240;SDS011;24037;49.536;8.500;2023-07-30T08:04:04;19.88;;;19.17;;
38240;SDS011;24037;49.536;8.500;2023-07-30T08:06:33;19.92;;;19.13;;
38240;SDS011;24037;49.536;8.500;2023-07-30T08:08:59;30.08;;;28.98;;
38240;SDS011;24037;49.536;8.500;2023-07-30T08:11:25;29.58;;;28.48;;
38240;SDS011;24037;49.536;8.500;2023-07-30T08:13:51;55.72;;;53.80;;
38240;SDS011;24037;49.536;8.500;2023-07-30T08:16:18;27.23;;;26.13;;
38240;SDS011;24037;49.536;8.500;2023-07-30T08:18:44;25.55;;;24.52;;
38240;SDS011;24037;49.536;8.500;2023-07-30T08:21:10;19.52;;;18.83;;
38240;SDS011;24037;49.536;8.500;2023-07-30T08:23:36;26.02;;;25.05;;
38240;SDS011;24037;49.536;8.500;2023-07-30T08:26:03;19.85;;;19.05;;
38240;SDS011;24037;49.536;8.500;2023-07-30T08:28:29;31.60;;;30.50;;
38240;SDS011;24037;49.536;8.500;2023-07-30T08:31:01;28.45;;;27.30;;
38240;SDS011;24037;49.536;8.500;2023-07-30T08:33:27;28.83;;;27.83;;
38240;SDS011;24037;49.536;8.500;2023-07-30T08:35:55;75.72;;;73.13;;
38240;SDS011;24037;49.536;8.500;2023-07-30T08:38:22;87.43;;;84.38;;
38240;SDS011;24037;49.536;8.500;2023-07-30T08:40:49;57.72;;;55.72;;
38240;SDS011;24037;49.536;8.500;2023-07-30T08:43:16;33.03;;;31.83;;
38240;SDS011;24037;49.536;8.500;2023-07-30T08:45:43;24.20;;;23.33;;
38240;SDS011;24037;49.536;8.500;2023-07-30T08:48:09;21.60;;;20.80;;
38240;SDS011;24037;49.536;8.500;2023-07-30T08:50:35;22.98;;;22.08;;
38240;SDS011;24037;49.536;8.500;2023-07-30T08:53:03;29.02;;;27.83;;
38240;SDS011;24037;49.536;8.500;2023-07-30T08:55:29;29.70;;;28.70;;
38240;SDS011;24037;49.536;8.500;2023-07-30T08:58:02;34.90;;;33.65;;
38240;SDS011;24037;49.536;8.500;2023-07-30T09:00:31;48.67;;;46.95;;
38240;SDS011;24037;49.536;8.500;2023-07-30T09:03:00;22.88;;;22.08;;
38240;SDS011;24037;49.536;8.500;2023-07-30T09:05:29;25.77;;;24.77;;
38240;SDS011;24037;49.536;8.500;2023-07-30T09:07:56;19.58;;;18.88;;
38240;SDS011;24037;49.536;8.500;2023-07-30T09:10:23;20.13;;;19.42;;
38240;SDS011;24037;49.536;8.500;2023-07-30T09:12:54;19.95;;;19.25;;
38240;SDS011;24037;49.536;8.500;2023-07-30T09:17:58;24.10;;;23.20;;
38240;SDS011;24037;49.536;8.500;2023-07-30T09:20:28;30.42;;;29.23;;
38240;SDS011;24037;49.536;8.500;2023-07-30T09:23:01;32.22;;;31.13;;
38240;SDS011;24037;49.536;8.500;2023-07-30T09:25:28;25.77;;;24.88;;
38240;SDS011;24037;49.536;8.500;2023-07-30T09:27:54;28.30;;;27.17;;
38240;SDS011;24037;49.536;8.500;2023-07-30T09:30:21;32.38;;;31.17;;
38240;SDS011;24037;49.536;8.500;2023-07-30T09:32:52;37.08;;;35.70;;
38240;SDS011;24037;49.536;8.500;2023-07-30T09:37:46;39.92;;;38.53;;
38240;SDS011;24037;49.536;8.500;2023-07-30T09:40:13;25.70;;;24.80;;
38240;SDS011;24037;49.536;8.500;2023-07-30T09:42:42;47.20;;;45.50;;
38240;SDS011;24037;49.536;8.500;2023-07-30T09:45:22;28.45;;;27.38;;
38240;SDS011;24037;49.536;8.500;2023-07-30T09:47:49;33.83;;;32.58;;
38240;SDS011;24037;49.536;8.500;2023-07-30T09:50:17;29.00;;;27.90;;
38240;SDS011;24037;49.536;8.500;2023-07-30T09:52:43;24.90;;;24.00;;
38240;SDS011;24037;49.536;8.500;2023-07-30T09:55:10;26.85;;;25.85;;
38240;SDS011;24037;49.536;8.500;2023-07-30T09:57:37;28.38;;;27.35;;
38240;SDS011;24037;49.536;8.500;2023-07-30T10:00:04;26.88;;;25.88;;
38240;SDS011;24037;49.536;8.500;2023-07-30T10:02:37;32.42;;;31.30;;
38240;SDS011;24037;49.536;8.500;2023-07-30T10:05:19;41.55;;;40.10;;
38240;SDS011;24037;49.536;8.500;2023-07-30T10:07:50;55.20;;;53.30;;
38240;SDS011;24037;49.536;8.500;2023-07-30T10:10:25;47.22;;;45.55;;
38240;SDS011;24037;49.536;8.500;2023-07-30T10:12:55;27.95;;;26.95;;
38240;SDS011;24037;49.536;8.500;2023-07-30T10:15:25;26.08;;;25.15;;
38240;SDS011;24037;49.536;8.500;2023-07-30T10:17:52;29.45;;;28.42;;
38240;SDS011;24037;49.536;8.500;2023-07-30T10:20:25;27.48;;;26.48;;
38240;SDS011;24037;49.536;8.500;2023-07-30T10:22:54;28.27;;;27.17;;
38240;SDS011;24037;49.536;8.500;2023-07-30T10:25:27;28.33;;;27.33;;
38240;SDS011;24037;49.536;8.500;2023-07-30T10:27:55;26.80;;;25.83;;
38240;SDS011;24037;49.536;8.500;2023-07-30T10:30:22;26.77;;;25.80;;
38240;SDS011;24037;49.536;8.500;2023-07-30T10:38:34;44.40;;;42.83;;
38240;SDS011;24037;49.536;8.500;2023-07-30T10:41:10;36.85;;;35.55;;
38240;SDS011;24037;49.536;8.500;2023-07-30T10:43:43;32.05;;;30.95;;
38240;SDS011;24037;49.536;8.500;2023-07-30T10:46:12;30.65;;;29.55;;
38240;SDS011;24037;49.536;8.500;2023-07-30T10:48:40;29.67;;;28.50;;
38240;SDS011;24037;49.536;8.500;2023-07-30T10:51:08;31.73;;;30.55;;
38240;SDS011;24037;49.536;8.500;2023-07-30T10:53:36;41.47;;;39.92;;
38240;SDS011;24037;49.536;8.500;2023-07-30T10:56:03;51.38;;;49.55;;
38240;SDS011;24037;49.536;8.500;2023-07-30T10:58:30;31.77;;;30.67;;
38240;SDS011;24037;49.536;8.500;2023-07-30T11:00:58;42.50;;;41.00;;
38240;SDS011;24037;49.536;8.500;2023-07-30T11:03:25;39.65;;;38.25;;
38240;SDS011;24037;49.536;8.500;2023-07-30T11:05:54;43.88;;;42.30;;
38240;SDS011;24037;49.536;8.500;2023-07-30T11:08:37;44.65;;;43.08;;
38240;SDS011;24037;49.536;8.500;2023-07-30T11:11:05;27.90;;;26.90;;
38240;SDS011;24037;49.536;8.500;2023-07-30T11:13:42;39.65;;;38.25;;
38240;SDS011;24037;49.536;8.500;2023-07-30T11:16:12;24.45;;;23.45;;
38240;SDS011;24037;49.536;8.500;2023-07-30T11:18:39;34.05;;;32.78;;
38240;SDS011;24037;49.536;8.500;2023-07-30T11:21:11;48.13;;;46.42;;
38240;SDS011;24037;49.536;8.500;2023-07-30T11:23:39;22.05;;;21.25;;
38240;SDS011;24037;49.536;8.500;2023-07-30T11:26:08;21.08;;;20.27;;
38240;SDS011;24037;49.536;8.500;2023-07-30T11:28:38;21.80;;;20.95;;
38240;SDS011;24037;49.536;8.500;2023-07-30T11:31:09;22.27;;;21.38;;
38240;SDS011;24037;49.536;8.500;2023-07-30T11:33:43;20.80;;;20.00;;
38240;SDS011;24037;49.536;8.500;2023-07-30T11:36:11;24.92;;;23.92;;
38240;SDS011;24037;49.536;8.500;2023-07-30T11:38:48;24.73;;;23.80;;
38240;SDS011;24037;49.536;8.500;2023-07-30T11:41:15;22.75;;;21.85;;
38240;SDS011;24037;49.536;8.500;2023-07-30T11:43:42;20.25;;;19.55;;
38240;SDS011;24037;49.536;8.500;2023-07-30T11:46:10;18.48;;;17.73;;
38240;SDS011;24037;49.536;8.500;2023-07-30T11:48:42;22.05;;;21.13;;
38240;SDS011;24037;49.536;8.500;2023-07-30T11:51:25;21.45;;;20.65;;
38240;SDS011;24037;49.536;8.500;2023-07-30T11:53:57;23.55;;;22.65;;
38240;SDS011;24037;49.536;8.500;2023-07-30T11:56:28;24.80;;;23.90;;
38240;SDS011;24037;49.536;8.500;2023-07-30T11:58:56;29.30;;;28.20;;
38240;SDS011;24037;49.536;8.500;2023-07-30T12:01:25;33.97;;;32.78;;
38240;SDS011;24037;49.536;8.500;2023-07-30T12:03:55;34.30;;;33.00;;
38240;SDS011;24037;49.536;8.500;2023-07-30T12:06:23;27.88;;;26.77;;
38240;SDS011;24037;49.536;8.500;2023-07-30T12:08:49;31.48;;;30.27;;
38240;SDS011;24037;49.536;8.500;2023-07-30T12:11:17;31.70;;;30.52;;
38240;SDS011;24037;49.536;8.500;2023-07-30T12:13:47;39.63;;;38.22;;
38240;SDS011;24037;49.536;8.500;2023-07-30T12:16:15;33.53;;;32.17;;
38240;SDS011;24037;49.536;8.500;2023-07-30T12:18:42;26.90;;;25.50;;
38240;SDS011;24037;49.536;8.500;2023-07-30T12:21:08;38.15;;;36.75;;
38240;SDS011;24037;49.536;8.500;2023-07-30T12:23:37;26.20;;;25.27;;
38240;SDS011;24037;49.536;8.500;2023-07-30T12:26:04;41.50;;;40.00;;
38240;SDS011;24037;49.536;8.500;2023-07-30T12:28:31;43.50;;;41.95;;
38240;SDS011;24037;49.536;8.500;2023-07-30T12:30:58;33.17;;;31.95;;
38240;SDS011;24037;49.536;8.500;2023-07-30T12:33:25;30.42;;;28.95;;
38240;SDS011;24037;49.536;8.500;2023-07-30T12:35:51;19.85;;;18.88;;
38240;SDS011;24037;49.536;8.500;2023-07-30T12:38:18;23.40;;;22.50;;
38240;SDS011;24037;49.536;8.500;2023-07-30T12:40:44;20.25;;;19.33;;
38240;SDS011;24037;49.536;8.500;2023-07-30T12:43:11;18.40;;;17.60;;
38240;SDS011;24037;49.536;8.500;2023-07-30T12:45:37;20.73;;;19.92;;
38240;SDS011;24037;49.536;8.500;2023-07-30T12:48:04;25.35;;;24.25;;
38240;SDS011;24037;49.536;8.500;2023-07-30T12:50:31;24.67;;;23.67;;
38240;SDS011;24037;49.536;8.500;2023-07-30T12:52:57;21.75;;;20.88;;
38240;SDS011;24037;49.536;8.500;2023-07-30T12:55:23;21.15;;;20.25;;
38240;SDS011;24037;49.536;8.500;2023-07-30T12:57:50;20.60;;;19.80;;
38240;SDS011;24037;49.536;8.500;2023-07-30T13:00:16;20.17;;;19.38;;
38240;SDS011;24037;49.536;8.500;2023-07-30T13:02:43;20.17;;;19.48;;
38240;SDS011;24037;49.536;8.500;2023-07-30T13:05:09;19.38;;;18.58;;
38240;SDS011;24037;49.536;8.500;2023-07-30T13:07:36;24.25;;;23.35;;
38240;SDS011;24037;49.536;8.500;2023-07-30T13:10:05;19.77;;;18.88;;
38240;SDS011;24037;49.536;8.500;2023-07-30T13:12:33;17.35;;;16.65;;
38240;SDS011;24037;49.536;8.500;2023-07-30T13:15:00;18.27;;;17.48;;
38240;SDS011;24037;49.536;8.500;2023-07-30T13:17:26;20.40;;;19.48;;
38240;SDS011;24037;49.536;8.500;2023-07-30T13:19:53;17.83;;;17.13;;
38240;SDS011;24037;49.536;8.500;2023-07-30T13:22:19;18.20;;;17.50;;
38240;SDS011;24037;49.536;8.500;2023-07-30T13:24:45;19.38;;;18.63;;
38240;SDS011;24037;49.536;8.500;2023-07-30T13:27:11;19.50;;;18.70;;
38240;SDS011;24037;49.536;8.500;2023-07-30T13:29:37;18.55;;;17.88;;
38240;SDS011;24037;49.536;8.500;2023-07-30T13:32:04;19.15;;;18.35;;
38240;SDS011;24037;49.536;8.500;2023-07-30T13:34:31;19.38;;;18.58;;
38240;SDS011;24037;49.536;8.500;2023-07-30T13:36:57;17.85;;;17.15;;
38240;SDS011;24037;49.536;8.500;2023-07-30T13:39:23;18.70;;;17.95;;
38240;SDS011;24037;49.536;8.500;2023-07-30T13:41:49;20.02;;;19.23;;
38240;SDS011;24037;49.536;8.500;2023-07-30T13:44:16;18.48;;;17.77;;
38240;SDS011;24037;49.536;8.500;2023-07-30T13:46:42;18.40;;;17.67;;
38240;SDS011;24037;49.536;8.500;2023-07-30T13:49:08;19.17;;;18.30;;
38240;SDS011;24037;49.536;8.500;2023-07-30T13:51:34;18.40;;;17.70;;
38240;SDS011;24037;49.536;8.500;2023-07-30T13:54:00;19.15;;;18.35;;
38240;SDS011;24037;49.536;8.500;2023-07-30T13:56:27;22.85;;;21.85;;
38240;SDS011;24037;49.536;8.500;2023-07-30T13:58:54;23.05;;;22.15;;
38240;SDS011;24037;49.536;8.500;2023-07-30T14:01:21;20.90;;;20.10;;
38240;SDS011;24037;49.536;8.500;2023-07-30T14:03:47;22.77;;;21.88;;
38240;SDS011;24037;49.536;8.500;2023-07-30T14:06:13;19.45;;;18.65;;
38240;SDS011;24037;49.536;8.500;2023-07-30T14:08:40;18.50;;;17.73;;
38240;SDS011;24037;49.536;8.500;2023-07-30T14:11:06;19.70;;;18.85;;
38240;SDS011;24037;49.536;8.500;2023-07-30T14:13:32;18.90;;;18.17;;
38240;SDS011;24037;49.536;8.500;2023-07-30T14:15:58;23.40;;;22.45;;
38240;SDS011;24037;49.536;8.500;2023-07-30T14:18:25;22.75;;;21.85;;
38240;SDS011;24037;49.536;8.500;2023-07-30T14:20:51;19.55;;;18.75;;
38240;SDS011;24037;49.536;8.500;2023-07-30T14:23:18;21.80;;;20.80;;
38240;SDS011;24037;49.536;8.500;2023-07-30T14:25:44;21.30;;;20.42;;
38240;SDS011;24037;49.536;8.500;2023-07-30T14:28:10;21.83;;;20.98;;
38240;SDS011;24037;49.536;8.500;2023-07-30T14:30:36;24.48;;;23.58;;
38240;SDS011;24037;49.536;8.500;2023-07-30T14:33:05;27.77;;;26.77;;